createdAt,value
2022-09-25T00:00:29.946Z,10.76
2022-09-25T00:02:59.575Z,10.66
2022-09-25T00:05:33.437Z,11.07
2022-09-25T00:08:00.318Z,11.05
2022-09-25T00:10:30.031Z,9.99
2022-09-25T00:13:00.930Z,10.64
2022-09-25T00:15:27.917Z,9.73
2022-09-25T00:18:00.102Z,9.90
2022-09-25T00:20:27.090Z,10.99
2022-09-25T00:22:55.063Z,10.50
2022-09-25T00:25:23.488Z,10.26
2022-09-25T00:27:56.428Z,10.33
2022-09-25T00:30:32.542Z,10.05
2022-09-25T00:33:00.794Z,10.17
2022-09-25T00:35:27.560Z,9.65
2022-09-25T00:37:54.640Z,10.82
2022-09-25T00:40:21.448Z,10.82
2022-09-25T00:42:51.094Z,10.49
2022-09-25T00:45:24.179Z,10.71
2022-09-25T00:47:59.756Z,10.03
2022-09-25T00:50:34.058Z,10.41
2022-09-25T00:53:05.772Z,10.58
2022-09-25T00:55:34.003Z,10.14
2022-09-25T00:58:02.842Z,10.60
2022-09-25T01:00:31.470Z,10.54
2022-09-25T01:03:00.249Z,9.43
2022-09-25T01:05:33.434Z,9.69
2022-09-25T01:08:02.862Z,9.94
2022-09-25T01:10:35.140Z,9.93
2022-09-25T01:13:03.202Z,10.35
2022-09-25T01:15:38.557Z,9.89
2022-09-25T01:18:16.280Z,10.18
2022-09-25T01:24:35.891Z,10.22
2022-09-25T01:27:40.454Z,9.00
2022-09-25T01:30:14.449Z,9.01
2022-09-25T01:32:55.557Z,9.35
2022-09-25T01:35:36.312Z,8.90
2022-09-25T01:38:11.216Z,10.10
2022-09-25T01:40:45.161Z,9.21
2022-09-25T01:43:17.214Z,8.99
2022-09-25T01:45:51.399Z,10.01
2022-09-25T01:48:23.096Z,8.80
2022-09-25T01:50:53.438Z,8.88
2022-09-25T01:53:23.706Z,8.84
2022-09-25T01:56:05.119Z,8.84
2022-09-25T02:01:42.660Z,8.90
2022-09-25T02:04:14.421Z,8.88
2022-09-25T02:06:48.196Z,10.04
2022-09-25T02:09:22.034Z,9.75
2022-09-25T02:14:48.464Z,10.49
2022-09-25T02:17:23.690Z,9.20
2022-09-25T02:19:50.566Z,10.48
2022-09-25T02:22:20.940Z,9.58
2022-09-25T02:24:56.478Z,9.63
2022-09-25T02:27:29.627Z,10.62
2022-09-25T02:29:57.480Z,9.40
2022-09-25T02:32:29.823Z,10.10
2022-09-25T02:34:57.759Z,10.54
2022-09-25T02:37:24.861Z,9.53
2022-09-25T02:39:54.634Z,10.49
2022-09-25T02:42:32.240Z,10.45
2022-09-25T02:45:10.421Z,9.74
2022-09-25T02:47:44.899Z,9.19
2022-09-25T02:50:21.218Z,10.33
2022-09-25T02:52:59.047Z,10.02
2022-09-25T02:55:34.633Z,10.32
2022-09-25T02:58:07.398Z,10.35
2022-09-25T03:00:36.854Z,10.32
2022-09-25T03:03:08.748Z,10.30
2022-09-25T03:05:36.803Z,10.26
2022-09-25T03:08:04.856Z,10.24
2022-09-25T03:10:35.091Z,10.00
2022-09-25T03:13:14.045Z,10.20
2022-09-25T03:15:44.469Z,10.13
2022-09-25T03:18:16.405Z,10.19
2022-09-25T03:20:43.301Z,10.18
2022-09-25T03:23:10.116Z,8.82
2022-09-25T03:25:36.722Z,9.99
2022-09-25T03:28:13.492Z,9.47
2022-09-25T03:30:42.648Z,9.04
2022-09-25T03:33:11.432Z,9.84
2022-09-25T03:35:40.150Z,9.21
2022-09-25T03:38:07.857Z,9.97
2022-09-25T03:40:34.614Z,10.47
2022-09-25T03:45:28.694Z,9.62
2022-09-25T03:47:55.396Z,10.21
2022-09-25T03:50:22.254Z,10.02
2022-09-25T03:52:50.513Z,9.59
2022-09-25T03:55:17.351Z,10.97
2022-09-25T03:57:44.094Z,11.04
2022-09-25T04:00:12.008Z,10.09
2022-09-25T04:02:38.954Z,10.88
2022-09-25T04:05:07.867Z,10.92
2022-09-25T04:07:34.627Z,10.64
2022-09-25T04:10:03.212Z,10.79
2022-09-25T04:12:30.360Z,11.29
2022-09-25T04:14:57.041Z,10.11
2022-09-25T04:17:24.079Z,10.59
2022-09-25T04:19:50.917Z,11.25
2022-09-25T04:22:17.595Z,11.24
2022-09-25T04:24:44.236Z,11.23
2022-09-25T04:27:12.491Z,11.21
2022-09-25T04:29:39.128Z,10.84
2022-09-25T04:32:10.231Z,11.25
2022-09-25T04:34:36.931Z,10.72
2022-09-25T04:37:03.880Z,11.10
2022-09-25T04:39:30.832Z,11.21
2022-09-25T04:41:57.797Z,10.78
2022-09-25T04:44:25.922Z,9.98
2022-09-25T04:46:52.780Z,10.87
2022-09-25T04:49:19.461Z,10.07
2022-09-25T04:51:46.069Z,10.17
2022-09-25T04:54:12.973Z,10.75
2022-09-25T04:56:39.634Z,10.20
2022-09-25T04:59:06.332Z,11.32
2022-09-25T05:01:37.244Z,10.16
2022-09-25T05:04:08.476Z,10.91
2022-09-25T05:06:36.056Z,11.11
2022-09-25T05:09:02.864Z,10.71
2022-09-25T05:11:29.882Z,11.45
2022-09-25T05:13:57.236Z,11.25
2022-09-25T05:16:24.219Z,11.47
2022-09-25T05:18:55.164Z,11.48
2022-09-25T05:21:22.052Z,11.47
2022-09-25T05:23:48.698Z,11.49
2022-09-25T05:26:16.108Z,11.40
2022-09-25T05:28:42.842Z,11.48
2022-09-25T05:31:10.252Z,11.49
2022-09-25T05:33:36.985Z,11.48
2022-09-25T05:36:07.818Z,11.33
2022-09-25T05:38:36.231Z,11.42
2022-09-25T05:41:04.136Z,11.32
2022-09-25T05:43:30.946Z,11.26
2022-09-25T05:45:58.655Z,11.39
2022-09-25T05:48:30.202Z,10.75
2022-09-25T05:50:58.472Z,11.37
2022-09-25T05:53:42.730Z,10.24
2022-09-25T05:59:43.658Z,10.53
2022-09-25T06:02:11.386Z,11.13
2022-09-25T06:04:38.221Z,11.23
2022-09-25T06:07:04.907Z,11.60
2022-09-25T06:09:36.297Z,11.73
2022-09-25T06:12:03.238Z,11.00
2022-09-25T06:14:30.178Z,10.84
2022-09-25T06:16:57.532Z,11.76
2022-09-25T06:19:24.201Z,11.76
2022-09-25T06:21:51.279Z,11.75
2022-09-25T06:24:18.042Z,11.61
2022-09-25T06:26:48.500Z,10.69
2022-09-25T06:29:15.231Z,10.85
2022-09-25T06:31:42.052Z,11.08
2022-09-25T06:34:09.533Z,11.53
2022-09-25T06:36:36.409Z,11.64
2022-09-25T06:39:03.393Z,11.68
2022-09-25T06:41:30.187Z,10.43
2022-09-25T06:43:58.603Z,10.63
2022-09-25T06:46:26.971Z,11.64
2022-09-25T06:48:56.047Z,11.23
2022-09-25T06:51:26.501Z,10.67
2022-09-25T06:54:22.537Z,11.75
2022-09-25T06:56:49.486Z,10.57
2022-09-25T06:59:18.242Z,10.55
2022-09-25T07:01:50.102Z,10.61
2022-09-25T07:07:05.856Z,10.55
2022-09-25T07:09:37.254Z,10.82
2022-09-25T07:12:14.325Z,11.96
2022-09-25T07:15:00.738Z,11.96
2022-09-25T07:17:34.283Z,11.72
2022-09-25T07:20:28.647Z,11.51
2022-09-25T07:22:59.330Z,12.20
2022-09-25T07:25:35.252Z,12.07
2022-09-25T07:28:02.477Z,12.33
2022-09-25T07:30:31.652Z,12.39
2022-09-25T07:33:00.261Z,11.21
2022-09-25T07:35:38.549Z,12.52
2022-09-25T07:38:05.866Z,12.59
2022-09-25T07:40:32.655Z,12.00
2022-09-25T07:43:03.010Z,11.58
2022-09-25T07:45:35.763Z,12.02
2022-09-25T07:48:04.332Z,12.66
2022-09-25T07:50:33.659Z,11.92
2022-09-25T07:53:00.781Z,12.76
2022-09-25T07:55:27.922Z,12.79
2022-09-25T07:58:00.324Z,12.52
2022-09-25T08:00:27.262Z,12.84
2022-09-25T08:03:22.832Z,12.69
2022-09-25T08:05:58.598Z,12.82
2022-09-25T08:08:25.776Z,11.84
2022-09-25T08:10:53.113Z,12.55
2022-09-25T08:13:19.950Z,12.02
2022-09-25T08:15:51.189Z,12.11
2022-09-25T08:18:36.763Z,12.96
2022-09-25T08:23:53.443Z,12.17
2022-09-25T08:26:21.838Z,12.14
2022-09-25T08:28:49.161Z,13.47
2022-09-25T08:31:16.102Z,12.68
2022-09-25T08:33:47.219Z,12.70
2022-09-25T08:36:18.102Z,13.75
2022-09-25T08:38:45.525Z,13.80
2022-09-25T08:41:17.925Z,13.75
2022-09-25T08:43:54.191Z,13.43
2022-09-25T08:46:27.831Z,13.28
2022-09-25T08:48:59.340Z,12.71
2022-09-25T08:51:27.283Z,13.44
2022-09-25T08:53:54.381Z,13.15
2022-09-25T08:56:21.390Z,12.71
2022-09-25T08:58:53.659Z,12.43
2022-09-25T09:01:24.196Z,12.26
2022-09-25T09:04:14.060Z,12.12
2022-09-25T09:06:43.698Z,12.83
2022-09-25T09:09:21.368Z,13.35
2022-09-25T09:11:52.506Z,13.33
2022-09-25T09:14:21.559Z,13.45
2022-09-25T09:16:56.417Z,12.66
2022-09-25T09:19:25.089Z,13.32
2022-09-25T09:21:58.426Z,13.34
2022-09-25T09:24:32.303Z,12.69
2022-09-25T09:27:13.563Z,13.40
2022-09-25T09:30:05.830Z,13.96
2022-09-25T09:32:50.978Z,13.75
2022-09-25T09:35:34.670Z,13.76
2022-09-25T09:38:16.570Z,14.22
2022-09-25T09:40:59.954Z,14.26
2022-09-25T09:43:40.558Z,14.52
2022-09-25T09:46:15.511Z,14.43
2022-09-25T09:48:53.290Z,14.00
2022-09-25T09:51:28.156Z,14.46
2022-09-25T09:54:01.437Z,14.58
2022-09-25T09:56:31.267Z,14.47
2022-09-25T09:59:00.599Z,14.92
2022-09-25T10:01:47.950Z,14.85
2022-09-25T10:04:17.870Z,15.12
2022-09-25T10:06:51.025Z,15.44
2022-09-25T10:09:20.274Z,16.10
2022-09-25T10:12:01.933Z,16.94
2022-09-25T10:14:34.632Z,17.32
2022-09-25T10:17:07.346Z,18.63
2022-09-25T10:19:49.038Z,19.07
2022-09-25T10:22:23.634Z,19.20
2022-09-25T10:25:01.941Z,20.46
2022-09-25T10:28:12.242Z,20.10
2022-09-25T10:31:24.608Z,20.14
2022-09-25T10:34:00.746Z,19.52
2022-09-25T10:36:40.141Z,20.32
2022-09-25T10:39:43.707Z,19.81
2022-09-25T10:42:34.581Z,20.65
2022-09-25T10:45:20.321Z,20.86
2022-09-25T10:47:49.652Z,21.65
2022-09-25T10:50:19.920Z,20.88
2022-09-25T10:52:48.689Z,20.93
2022-09-25T10:55:24.471Z,20.33
2022-09-25T10:57:57.679Z,19.56
2022-09-25T11:00:28.158Z,19.04
2022-09-25T11:02:58.063Z,18.65
2022-09-25T11:05:28.891Z,18.29
2022-09-25T11:07:57.867Z,17.66
2022-09-25T11:10:29.015Z,16.75
2022-09-25T11:12:56.613Z,17.10
2022-09-25T11:15:26.300Z,16.76
2022-09-25T11:17:54.513Z,16.92
2022-09-25T11:20:25.259Z,16.85
2022-09-25T11:23:02.007Z,16.76
2022-09-25T11:25:40.271Z,16.76
2022-09-25T11:28:13.341Z,16.51
2022-09-25T11:30:44.783Z,16.79
2022-09-25T11:33:19.057Z,16.90
2022-09-25T11:35:50.590Z,16.82
2022-09-25T11:38:28.955Z,16.76
2022-09-25T11:41:03.061Z,16.84
2022-09-25T11:43:52.102Z,16.88
2022-09-25T11:46:27.763Z,16.99
2022-09-25T11:49:12.063Z,16.24
2022-09-25T11:52:09.852Z,17.04
2022-09-25T11:54:48.987Z,17.00
2022-09-25T11:57:28.568Z,17.40
2022-09-25T12:00:07.693Z,17.45
2022-09-25T12:02:52.222Z,17.66
2022-09-25T12:05:46.898Z,17.87
2022-09-25T12:08:24.445Z,17.19
2022-09-25T12:11:00.373Z,18.22
2022-09-25T12:13:37.353Z,18.45
2022-09-25T12:16:13.500Z,18.37
2022-09-25T12:18:58.954Z,18.39
2022-09-25T12:21:33.754Z,18.50
2022-09-25T12:24:07.480Z,18.63
2022-09-25T12:26:42.265Z,18.57
2022-09-25T12:29:26.152Z,18.59
2022-09-25T12:32:01.743Z,18.70
2022-09-25T12:34:42.108Z,18.74
2022-09-25T12:37:17.883Z,18.76
2022-09-25T12:39:52.052Z,18.77
2022-09-25T12:42:50.441Z,17.63
2022-09-25T12:56:28.016Z,18.69
2022-09-25T12:59:14.413Z,18.83
2022-09-25T13:01:52.942Z,18.45
2022-09-25T13:04:58.764Z,18.70
2022-09-25T13:07:37.455Z,19.21
2022-09-25T13:10:23.177Z,18.79
2022-09-25T13:13:19.447Z,19.23
2022-09-25T13:16:37.545Z,19.52
2022-09-25T13:23:11.232Z,18.79
2022-09-25T13:25:52.769Z,20.02
2022-09-25T13:28:59.376Z,19.76
2022-09-25T13:31:40.507Z,19.58
2022-09-25T13:34:27.835Z,19.31
2022-09-25T13:36:59.515Z,20.27
2022-09-25T13:50:14.451Z,20.95
2022-09-25T13:53:23.567Z,20.70
2022-09-25T14:21:03.878Z,21.53
2022-09-25T14:24:12.891Z,22.98
2022-09-25T14:28:00.846Z,22.29
2022-09-25T15:31:38.008Z,17.52
2022-09-25T16:01:53.000Z,16.81
2022-09-25T16:06:27.074Z,16.78
2022-09-25T16:20:18.605Z,16.56
2022-09-25T17:15:41.861Z,15.63
2022-09-25T17:18:16.677Z,15.60
2022-09-25T18:40:24.688Z,12.43
2022-09-25T20:12:04.604Z,11.54
2022-09-25T20:17:40.988Z,11.07
2022-09-25T20:34:36.579Z,10.90
2022-09-25T20:40:51.472Z,10.97
2022-09-25T20:43:50.257Z,12.07
2022-09-25T20:46:48.289Z,10.93
2022-09-25T20:53:20.835Z,11.90
2022-09-25T20:56:20.493Z,10.89
2022-09-25T21:02:07.971Z,12.23
2022-09-25T21:04:46.601Z,12.05
2022-09-25T21:07:51.658Z,11.25
2022-09-25T21:14:00.169Z,11.22
2022-09-25T21:17:08.862Z,11.96
2022-09-25T21:19:45.048Z,12.41
2022-09-25T21:25:52.651Z,12.40
2022-09-25T21:28:35.510Z,12.23
2022-09-25T21:31:43.823Z,11.43
2022-09-25T21:34:39.620Z,11.46
2022-09-25T21:37:37.838Z,12.27
2022-09-25T21:40:32.960Z,11.40
2022-09-25T21:43:28.958Z,12.61
2022-09-25T21:46:49.297Z,11.53
2022-09-25T22:06:13.205Z,12.72
2022-09-25T22:08:49.938Z,11.73
2022-09-25T22:11:23.577Z,11.63
2022-09-25T22:14:10.884Z,11.89
2022-09-25T22:16:54.487Z,12.35
2022-09-25T22:19:37.033Z,11.73
2022-09-25T22:22:04.841Z,11.83
2022-09-25T22:24:40.499Z,12.33
2022-09-25T22:30:08.263Z,12.84
2022-09-25T22:32:47.766Z,12.88
2022-09-25T22:36:10.389Z,12.86
2022-09-25T22:39:32.109Z,12.00
2022-09-25T22:45:08.466Z,12.59
2022-09-25T22:48:05.697Z,12.65
2022-09-25T22:50:39.299Z,11.76
2022-09-25T22:53:20.207Z,11.83
2022-09-25T22:55:47.255Z,11.86
2022-09-25T22:58:46.932Z,12.83
2022-09-25T23:01:29.949Z,11.69
2022-09-25T23:07:40.150Z,12.48
2022-09-25T23:10:11.561Z,12.67
2022-09-25T23:13:05.947Z,12.38
2022-09-25T23:15:58.642Z,11.63
2022-09-25T23:21:48.312Z,11.97
2022-09-25T23:24:51.374Z,12.59
2022-09-25T23:27:46.988Z,12.06
2022-09-25T23:33:23.112Z,12.35
2022-09-25T23:36:07.567Z,12.40
2022-09-25T23:38:53.103Z,11.68
2022-09-25T23:41:49.432Z,11.46
2022-09-25T23:44:20.439Z,11.81
2022-09-25T23:46:57.405Z,12.52
2022-09-25T23:49:31.068Z,11.42
2022-09-25T23:52:12.952Z,12.54
2022-09-25T23:54:47.370Z,12.51
2022-09-25T23:57:29.149Z,12.04
